Time;durP1;ratioP1;P1;durP2;ratioP2;P2;SDS_P1;SDS_P2;PMS_P1;PMS_P2;Temp;Humidity;BMP_temperature;BMP_pressure;BME280_temperature;BME280_humidity;BME280_pressure;Samples;Min_cycle;Max_cycle;Signal;HPM_P1;HPM_P2
2021/11/17 02:27:58;;;;;;;39.22;17.85;;;7.10;88.20;;;;;;5051004;28;20095;-78
2021/11/17 02:30:34;;;;;;;45.40;20.50;;;7.10;88.30;;;;;;5051742;28;20039;-77
2021/11/17 02:33:29;;;;;;;31.77;15.27;;;7.10;88.30;;;;;;5022918;28;20510;-77
2021/11/17 02:36:05;;;;;;;42.22;19.55;;;7.10;88.40;;;;;;5050803;28;20412;-77
2021/11/17 02:38:57;;;;;;;31.92;14.35;;;7.10;88.40;;;;;;5051302;28;20383;-77
2021/11/17 02:41:54;;;;;;;29.52;13.77;;;7.10;88.40;;;;;;5049825;28;20041;-78
2021/11/17 02:44:20;;;;;;;33.88;15.55;;;7.10;88.30;;;;;;5050001;28;20041;-77
2021/11/17 02:47:10;;;;;;;39.55;18.63;;;7.20;88.20;;;;;;5050091;28;20075;-77
2021/11/17 02:49:48;;;;;;;47.78;20.35;;;7.10;88.20;;;;;;5051352;28;20059;-78
2021/11/17 02:52:32;;;;;;;36.25;17.02;;;7.10;88.30;;;;;;5051447;28;20548;-78
2021/11/17 02:55:24;;;;;;;39.88;17.95;;;7.10;88.40;;;;;;5049677;28;20069;-78
2021/11/17 02:58:09;;;;;;;41.65;17.83;;;7.00;88.50;;;;;;5039563;28;20040;-78
2021/11/17 03:01:12;;;;;;;36.08;15.43;;;7.10;88.60;;;;;;5049135;28;20017;-78
2021/11/17 03:04:19;;;;;;;33.77;16.50;;;7.10;88.60;;;;;;5049090;28;20522;-77
2021/11/17 03:07:01;;;;;;;56.17;24.83;;;7.10;88.50;;;;;;4991694;28;20050;-78
2021/11/17 03:09:49;;;;;;;41.05;18.13;;;7.00;88.40;;;;;;5048716;28;20040;-77
2021/11/17 03:12:39;;;;;;;37.28;17.60;;;7.00;88.70;;;;;;5050778;28;20087;-78
2021/11/17 03:15:42;;;;;;;48.47;21.05;;;7.00;88.60;;;;;;5047532;28;20384;-78
2021/11/17 03:18:22;;;;;;;38.97;17.70;;;7.00;88.60;;;;;;5050962;28;20068;-78
2021/11/17 03:21:25;;;;;;;34.15;15.80;;;7.10;88.70;;;;;;5020666;28;20095;-78
2021/11/17 03:24:10;;;;;;;50.03;21.20;;;7.10;88.70;;;;;;5050276;28;20514;-77
2021/11/17 03:27:14;;;;;;;47.78;21.40;;;7.00;88.60;;;;;;5051265;28;20025;-77
2021/11/17 03:30:07;;;;;;;52.78;21.30;;;7.00;88.70;;;;;;5034313;28;20028;-77
2021/11/17 03:33:09;;;;;;;29.00;13.73;;;7.00;88.70;;;;;;5049423;28;20115;-77
2021/11/17 03:35:44;;;;;;;35.15;15.70;;;7.00;88.70;;;;;;5049714;28;20032;-77
2021/11/17 03:38:37;;;;;;;31.73;15.43;;;7.00;88.70;;;;;;5050538;28;20029;-77
2021/11/17 03:41:28;;;;;;;30.95;13.43;;;7.10;88.70;;;;;;5050290;28;20036;-77
2021/11/17 03:44:07;;;;;;;53.33;21.05;;;7.10;88.60;;;;;;5048298;28;20033;-76
2021/11/17 03:46:51;;;;;;;39.88;18.05;;;7.10;88.60;;;;;;5050328;28;20021;-76
2021/11/17 03:49:25;;;;;;;46.63;20.60;;;7.10;88.70;;;;;;5048310;28;20442;-77
2021/11/17 03:52:18;;;;;;;40.25;16.73;;;7.00;88.60;;;;;;5050548;28;20568;-76
2021/11/17 03:55:03;;;;;;;38.80;17.05;;;7.10;88.70;;;;;;5049254;28;20029;-77
2021/11/17 03:57:57;;;;;;;35.00;16.27;;;7.10;88.60;;;;;;5049146;28;20021;-77
2021/11/17 04:00:25;;;;;;;37.90;17.73;;;7.20;88.70;;;;;;5050522;28;20020;-77
2021/11/17 04:03:13;;;;;;;35.42;16.63;;;7.10;88.50;;;;;;5049894;28;20490;-77
2021/11/17 04:06:10;;;;;;;33.80;15.48;;;7.20;88.60;;;;;;5049482;28;20029;-78
2021/11/17 04:08:54;;;;;;;29.60;13.50;;;7.10;88.50;;;;;;5047105;28;20032;-77
2021/11/17 04:11:35;;;;;;;31.30;14.43;;;7.20;88.50;;;;;;5048310;28;20029;-78
2021/11/17 04:14:12;;;;;;;38.50;18.45;;;7.20;88.30;;;;;;5047963;28;20059;-78
2021/11/17 04:16:57;;;;;;;32.92;14.27;;;7.20;88.30;;;;;;5049547;28;20029;-78
2021/11/17 04:19:59;;;;;;;35.08;16.58;;;7.20;88.30;;;;;;5047967;28;20032;-78
2021/11/17 04:22:49;;;;;;;35.22;15.75;;;7.20;88.30;;;;;;5048236;28;20032;-77
2021/11/17 04:25:49;;;;;;;37.13;17.25;;;7.30;88.30;;;;;;5046599;28;20073;-78
2021/11/17 04:28:59;;;;;;;36.30;15.95;;;7.30;88.30;;;;;;5047983;28;20047;-78
2021/11/17 04:31:52;;;;;;;37.35;17.73;;;7.20;88.20;;;;;;5025200;28;20067;-78
2021/11/17 04:34:43;;;;;;;41.15;18.95;;;7.20;88.20;;;;;;5047768;28;20036;-78
2021/11/17 04:37:47;;;;;;;41.05;18.52;;;7.20;88.20;;;;;;5047481;28;20028;-78
2021/11/17 04:40:20;;;;;;;41.45;19.63;;;7.20;88.30;;;;;;5019164;28;20049;-78
2021/11/17 04:43:22;;;;;;;32.53;15.55;;;7.20;88.30;;;;;;5047746;28;20032;-78
2021/11/17 04:45:54;;;;;;;36.53;15.63;;;7.20;88.50;;;;;;5048246;28;20035;-78
2021/11/17 04:48:50;;;;;;;36.85;16.42;;;7.20;88.30;;;;;;5048354;28;20494;-78
2021/11/17 04:51:29;;;;;;;35.63;16.38;;;7.20;88.40;;;;;;5048375;28;20037;-78
2021/11/17 04:54:20;;;;;;;32.10;14.98;;;7.20;88.50;;;;;;5049781;28;20036;-77
2021/11/17 04:57:18;;;;;;;35.55;15.45;;;7.20;88.40;;;;;;5048214;28;20103;-78
2021/11/17 05:00:05;;;;;;;35.35;15.93;;;7.30;88.50;;;;;;5049615;28;20445;-78
2021/11/17 05:02:46;;;;;;;47.58;20.77;;;7.30;88.40;;;;;;5055694;28;20045;-77
2021/11/17 05:05:45;;;;;;;29.63;14.88;;;7.20;88.40;;;;;;5049262;28;20017;-78
2021/11/17 05:08:17;;;;;;;46.95;21.60;;;7.20;88.60;;;;;;5049628;28;20502;-79
2021/11/17 05:11:14;;;;;;;43.78;19.48;;;7.20;88.60;;;;;;5050894;28;20076;-79
2021/11/17 05:14:16;;;;;;;43.13;19.45;;;7.20;88.70;;;;;;5028255;28;20437;-79
2021/11/17 05:16:58;;;;;;;40.05;17.25;;;7.20;88.80;;;;;;5049878;28;20124;-79
2021/11/17 05:19:54;;;;;;;47.35;21.25;;;7.20;88.90;;;;;;5049310;28;20041;-79
2021/11/17 05:22:52;;;;;;;41.28;19.17;;;7.10;88.80;;;;;;5050592;28;20040;-79
2021/11/17 05:25:17;;;;;;;38.55;17.00;;;7.20;88.90;;;;;;5007811;28;20049;-78
2021/11/17 05:27:55;;;;;;;38.70;16.52;;;7.10;88.80;;;;;;5047555;28;20699;-78
2021/11/17 05:30:34;;;;;;;42.35;16.83;;;7.20;88.90;;;;;;5049252;28;20033;-78
2021/11/17 05:33:30;;;;;;;33.85;16.05;;;7.20;88.80;;;;;;5049012;28;20076;-78
2021/11/17 05:36:07;;;;;;;41.10;17.73;;;7.20;88.90;;;;;;5050695;28;20492;-78
2021/11/17 05:38:57;;;;;;;44.63;18.23;;;7.20;88.80;;;;;;5050481;28;20717;-78
2021/11/17 05:41:28;;;;;;;43.05;19.20;;;7.20;88.80;;;;;;5050677;28;20116;-78
2021/11/17 05:44:25;;;;;;;34.20;15.18;;;7.20;88.80;;;;;;5049910;28;20440;-79
2021/11/17 05:47:11;;;;;;;41.47;18.02;;;7.20;88.90;;;;;;5034631;28;20459;-78
2021/11/17 05:49:51;;;;;;;35.65;15.48;;;7.20;88.80;;;;;;5050619;28;20033;-79
2021/11/17 05:52:30;;;;;;;36.10;16.38;;;7.20;88.90;;;;;;5052832;28;20403;-79
2021/11/17 05:55:06;;;;;;;37.42;16.17;;;7.20;88.80;;;;;;5055013;28;20040;-79
2021/11/17 05:57:37;;;;;;;35.70;15.48;;;7.30;88.90;;;;;;5050698;28;20463;-79
2021/11/17 06:00:30;;;;;;;32.10;13.75;;;7.30;89.40;;;;;;5053799;28;20045;-79
2021/11/17 06:03:26;;;;;;;35.65;15.00;;;7.30;88.90;;;;;;5051937;28;20136;-79
2021/11/17 06:05:51;;;;;;;39.38;17.73;;;7.30;88.70;;;;;;5053727;28;20021;-80
2021/11/17 06:08:17;;;;;;;45.30;19.05;;;7.30;88.70;;;;;;5053619;28;20399;-79
2021/11/17 06:10:47;;;;;;;42.53;18.63;;;7.30;88.70;;;;;;5053482;28;20024;-79
2021/11/17 06:13:15;;;;;;;46.92;18.48;;;7.30;88.80;;;;;;5053015;28;20037;-78
2021/11/17 06:15:43;;;;;;;29.95;13.02;;;7.30;88.80;;;;;;5049782;28;20476;-75
2021/11/17 06:18:12;;;;;;;29.88;13.40;;;7.30;88.80;;;;;;5052321;28;20025;-77
2021/11/17 06:20:38;;;;;;;50.70;19.98;;;7.30;88.80;;;;;;5050885;28;20024;-77
2021/11/17 06:23:10;;;;;;;38.78;15.60;;;7.30;88.80;;;;;;5055257;28;20510;-78
2021/11/17 06:25:39;;;;;;;28.63;13.43;;;7.30;88.90;;;;;;5052983;28;20031;-78
2021/11/17 06:28:06;;;;;;;32.40;13.52;;;7.30;88.80;;;;;;5052615;28;20031;-78
2021/11/17 06:30:35;;;;;;;36.80;15.70;;;7.40;88.80;;;;;;5051985;28;20017;-75
2021/11/17 06:33:02;;;;;;;35.53;15.40;;;7.40;89.40;;;;;;5052046;28;20041;-79
2021/11/17 06:35:27;;;;;;;43.33;17.17;;;7.40;88.80;;;;;;5054711;28;20021;-79
2021/11/17 06:37:56;;;;;;;32.70;14.70;;;7.40;88.70;;;;;;5040650;28;20396;-78
2021/11/17 06:40:23;;;;;;;33.58;14.77;;;7.40;88.70;;;;;;5053435;28;20029;-78
2021/11/17 06:42:51;;;;;;;31.67;13.80;;;7.50;88.70;;;;;;5047901;28;20460;-75
2021/11/17 06:45:23;;;;;;;45.30;19.15;;;7.40;88.60;;;;;;5045840;28;20025;-78
2021/11/17 06:47:49;;;;;;;35.67;15.47;;;7.40;88.60;;;;;;5049633;28;20025;-79
2021/11/17 06:50:17;;;;;;;51.00;21.15;;;7.40;88.70;;;;;;5053083;28;20029;-79
2021/11/17 06:52:42;;;;;;;34.70;15.45;;;7.40;88.70;;;;;;5045086;28;20017;-79
2021/11/17 06:55:09;;;;;;;38.88;16.42;;;7.40;88.80;;;;;;5050411;28;20036;-79
2021/11/17 06:57:35;;;;;;;35.97;16.17;;;7.40;88.80;;;;;;5046900;28;20021;-80
2021/11/17 07:00:01;;;;;;;30.55;14.18;;;7.40;88.80;;;;;;5045317;28;20639;-80
2021/11/17 07:02:26;;;;;;;39.88;17.58;;;7.40;88.80;;;;;;5050209;28;20060;-76
2021/11/17 07:04:52;;;;;;;37.42;15.95;;;7.50;88.90;;;;;;5041768;28;20033;-79
2021/11/17 07:07:17;;;;;;;32.50;13.98;;;7.50;88.90;;;;;;5049073;28;20037;-78
2021/11/17 07:09:44;;;;;;;29.17;13.30;;;7.50;88.80;;;;;;5046768;28;20025;-79
2021/11/17 07:12:12;;;;;;;43.47;17.88;;;7.50;88.80;;;;;;5048699;28;20423;-78
2021/11/17 07:14:38;;;;;;;41.35;17.52;;;7.60;88.80;;;;;;5048258;28;20178;-80
2021/11/17 07:17:04;;;;;;;38.45;16.60;;;7.50;88.70;;;;;;5040839;28;20029;-78
2021/11/17 07:19:29;;;;;;;29.38;13.60;;;7.60;88.90;;;;;;5048878;28;20112;-78
2021/11/17 07:21:58;;;;;;;43.45;17.90;;;7.60;88.80;;;;;;5043497;28;20049;-79
2021/11/17 07:24:26;;;;;;;45.00;18.92;;;7.60;88.80;;;;;;5046875;28;20030;-79
2021/11/17 07:26:52;;;;;;;35.20;15.15;;;7.50;88.90;;;;;;5043278;28;20052;-80
2021/11/17 07:29:18;;;;;;;37.00;14.93;;;7.60;89.00;;;;;;5049857;28;20476;-79
2021/11/17 07:31:44;;;;;;;31.40;13.10;;;7.60;88.90;;;;;;5048781;28;20021;-79
2021/11/17 07:34:11;;;;;;;29.70;14.02;;;7.60;88.90;;;;;;5045895;28;20086;-78
2021/11/17 07:36:37;;;;;;;33.45;14.60;;;7.70;88.90;;;;;;5047674;28;20033;-79
2021/11/17 07:39:04;;;;;;;28.15;12.77;;;7.70;88.80;;;;;;5043722;28;20715;-79
2021/11/17 07:41:30;;;;;;;39.28;15.73;;;7.70;88.70;;;;;;5049282;28;20071;-78
2021/11/17 07:43:55;;;;;;;34.67;14.55;;;7.70;88.70;;;;;;5046551;28;20102;-78
2021/11/17 07:46:21;;;;;;;28.15;12.40;;;7.70;88.80;;;;;;5045984;28;20039;-78
2021/11/17 07:48:47;;;;;;;40.85;16.85;;;7.70;88.80;;;;;;5047940;28;20148;-78
2021/11/17 07:51:15;;;;;;;37.97;16.92;;;7.80;88.80;;;;;;5045737;28;20021;-78
2021/11/17 07:53:40;;;;;;;30.27;13.25;;;7.80;88.80;;;;;;5049637;28;20080;-78
2021/11/17 07:56:07;;;;;;;29.98;12.93;;;7.80;88.70;;;;;;5044638;28;20643;-79
2021/11/17 07:58:38;;;;;;;39.72;17.27;;;7.70;88.70;;;;;;5035790;28;20124;-79
2021/11/17 08:01:05;;;;;;;41.30;17.38;;;7.80;88.90;;;;;;5046962;28;20502;-78
2021/11/17 08:03:35;;;;;;;47.55;19.75;;;7.80;88.90;;;;;;5045498;28;20537;-78
2021/11/17 08:06:01;;;;;;;45.08;18.15;;;7.80;88.90;;;;;;5047247;28;20681;-79
2021/11/17 08:08:28;;;;;;;33.15;14.90;;;7.80;89.00;;;;;;5045261;28;20032;-79
2021/11/17 08:10:54;;;;;;;36.92;16.60;;;7.90;89.00;;;;;;5044035;28;20031;-78
2021/11/17 08:13:20;;;;;;;36.38;14.93;;;7.90;89.00;;;;;;5048732;28;20530;-79
2021/11/17 08:15:45;;;;;;;30.08;12.75;;;7.90;88.90;;;;;;5048283;28;20021;-78
2021/11/17 08:18:11;;;;;;;33.90;15.25;;;7.90;88.90;;;;;;5046867;28;20040;-77
2021/11/17 08:20:36;;;;;;;38.17;16.15;;;8.00;88.90;;;;;;5047806;28;20043;-77
2021/11/17 08:23:03;;;;;;;36.55;15.77;;;8.00;88.90;;;;;;5046751;28;20119;-78
2021/11/17 08:25:33;;;;;;;42.35;18.58;;;8.00;88.90;;;;;;5039996;28;20014;-78
2021/11/17 08:27:59;;;;;;;31.80;14.25;;;8.00;89.00;;;;;;5043908;28;20483;-78
2021/11/17 08:30:28;;;;;;;34.25;15.00;;;8.00;89.10;;;;;;5049658;28;20024;-80
2021/11/17 08:32:54;;;;;;;33.75;13.82;;;8.10;89.00;;;;;;5049003;28;20037;-79
2021/11/17 08:35:23;;;;;;;25.23;11.05;;;8.10;88.90;;;;;;5050826;28;20711;-79
2021/11/17 08:37:50;;;;;;;42.28;17.58;;;8.20;88.90;;;;;;5049460;28;20017;-79
2021/11/17 08:40:22;;;;;;;33.55;14.18;;;8.10;88.80;;;;;;5051078;28;20025;-79
2021/11/17 08:42:48;;;;;;;32.72;13.80;;;8.20;88.90;;;;;;5050732;28;20083;-79
2021/11/17 08:45:16;;;;;;;47.40;18.88;;;8.20;88.90;;;;;;5050487;28;20025;-79
2021/11/17 08:47:42;;;;;;;46.40;19.20;;;8.20;88.90;;;;;;5050747;28;20029;-80
2021/11/17 08:50:11;;;;;;;30.80;13.05;;;8.20;88.90;;;;;;5050923;28;20032;-79
2021/11/17 08:52:37;;;;;;;38.13;15.85;;;8.20;88.90;;;;;;5049131;28;20021;-79
2021/11/17 08:55:03;;;;;;;39.58;16.67;;;8.30;89.00;;;;;;5049813;28;20029;-79
2021/11/17 08:57:29;;;;;;;37.97;15.27;;;8.30;88.90;;;;;;5044033;28;20032;-79
2021/11/17 08:59:54;;;;;;;45.17;17.05;;;8.30;88.90;;;;;;5050219;28;20032;-79
2021/11/17 09:02:21;;;;;;;37.50;15.07;;;8.30;88.90;;;;;;5048407;28;20418;-79
2021/11/17 09:04:46;;;;;;;33.10;14.50;;;8.40;89.00;;;;;;5043837;28;20083;-79
2021/11/17 09:07:13;;;;;;;48.70;19.05;;;8.40;89.60;;;;;;5049496;28;20049;-79
2021/11/17 09:09:40;;;;;;;42.13;17.23;;;8.40;89.00;;;;;;5049717;28;20427;-78
2021/11/17 09:12:06;;;;;;;50.78;20.67;;;8.40;89.00;;;;;;5050574;28;20096;-78
2021/11/17 09:14:32;;;;;;;42.55;17.52;;;8.50;89.10;;;;;;5048701;28;20037;-77
2021/11/17 09:16:57;;;;;;;42.58;16.80;;;8.40;89.10;;;;;;5046462;28;20503;-78
2021/11/17 09:19:24;;;;;;;32.60;14.27;;;8.50;89.10;;;;;;5048374;28;20079;-78
2021/11/17 09:21:50;;;;;;;36.13;14.80;;;8.50;89.10;;;;;;5047283;28;20535;-78
2021/11/17 09:24:19;;;;;;;32.58;14.05;;;8.50;89.10;;;;;;5049373;28;20095;-79
2021/11/17 09:26:47;;;;;;;35.30;13.95;;;8.50;89.20;;;;;;5051625;28;20121;-79
2021/11/17 09:29:13;;;;;;;30.40;13.23;;;8.50;89.20;;;;;;5052856;28;20483;-78
2021/11/17 09:31:41;;;;;;;34.38;13.27;;;8.50;89.20;;;;;;5052773;28;20021;-80
2021/11/17 09:34:09;;;;;;;38.78;15.55;;;8.60;89.30;;;;;;5045728;28;20021;-78
2021/11/17 09:36:36;;;;;;;43.45;15.98;;;8.60;89.30;;;;;;5044639;28;20752;-78
2021/11/17 09:39:05;;;;;;;41.28;15.27;;;8.60;89.20;;;;;;5044672;28;20045;-78
2021/11/17 09:41:35;;;;;;;35.42;14.80;;;8.60;89.20;;;;;;5040177;28;20095;-79
2021/11/17 09:44:04;;;;;;;43.63;18.80;;;8.70;89.30;;;;;;5036487;28;20495;-79
2021/11/17 09:46:31;;;;;;;36.15;15.73;;;8.70;89.30;;;;;;5047175;28;20032;-77
2021/11/17 09:49:02;;;;;;;30.90;13.80;;;8.70;89.40;;;;;;5043574;28;20029;-77
2021/11/17 09:51:32;;;;;;;28.02;11.85;;;8.70;89.30;;;;;;5049336;28;20112;-78
2021/11/17 09:54:07;;;;;;;38.15;16.35;;;8.80;89.30;;;;;;5051974;28;20541;-77
2021/11/17 09:56:45;;;;;;;36.60;15.68;;;8.80;89.30;;;;;;5052405;28;20025;-78
2021/11/17 09:59:25;;;;;;;36.80;14.98;;;8.80;89.30;;;;;;5049956;28;20479;-78
2021/11/17 10:02:14;;;;;;;32.88;13.65;;;8.80;89.30;;;;;;5048948;28;20052;-78
2021/11/17 10:05:00;;;;;;;26.88;12.90;;;8.80;89.30;;;;;;5050946;28;20059;-78
2021/11/17 10:13:39;;;;;;;34.97;15.00;;;8.90;89.40;;;;;;4996384;28;20069;-79
2021/11/17 10:16:05;;;;;;;24.35;10.98;;;8.90;89.40;;;;;;5025326;28;20039;-78
2021/11/17 10:18:32;;;;;;;37.53;15.10;;;8.90;89.40;;;;;;5050372;28;20585;-78
2021/11/17 10:21:06;;;;;;;26.45;11.25;;;8.90;89.40;;;;;;5049844;28;20035;-79
2021/11/17 10:23:35;;;;;;;30.67;13.75;;;9.00;89.60;;;;;;5049002;28;20032;-78
2021/11/17 10:26:04;;;;;;;39.70;16.33;;;9.00;89.50;;;;;;5049784;28;20028;-79
2021/11/17 10:28:35;;;;;;;47.83;19.88;;;9.10;89.60;;;;;;5048503;28;20029;-80
2021/11/17 10:31:16;;;;;;;37.88;15.75;;;9.00;89.60;;;;;;5059857;28;20021;-79
2021/11/17 10:34:06;;;;;;;23.50;10.32;;;9.10;89.70;;;;;;5046085;28;20399;-79
2021/11/17 10:36:51;;;;;;;33.17;13.40;;;9.10;89.60;;;;;;5054776;28;20028;-80
2021/11/17 10:39:27;;;;;;;36.08;15.15;;;9.20;89.60;;;;;;5051403;28;20021;-79
2021/11/17 10:41:58;;;;;;;33.85;15.38;;;9.20;89.40;;;;;;5048463;28;20028;-78
2021/11/17 10:44:44;;;;;;;40.50;16.48;;;9.30;89.60;;;;;;5052233;28;20036;-79
2021/11/17 10:47:15;;;;;;;36.33;14.85;;;9.30;89.60;;;;;;5063494;28;20387;-78
2021/11/17 10:49:45;;;;;;;32.70;14.13;;;9.40;89.60;;;;;;5051565;28;20021;-78
2021/11/17 10:52:27;;;;;;;21.85;9.90;;;9.40;89.50;;;;;;5052763;28;20017;-78
2021/11/17 10:54:55;;;;;;;30.10;13.75;;;9.40;89.60;;;;;;5050684;28;20388;-78
2021/11/17 10:57:33;;;;;;;31.05;12.98;;;9.50;89.50;;;;;;5054535;28;20017;-77
2021/11/17 10:59:59;;;;;;;29.55;13.60;;;9.50;89.50;;;;;;5050787;28;20136;-79
2021/11/17 11:02:28;;;;;;;31.55;14.18;;;9.50;89.50;;;;;;5050000;28;20040;-78
2021/11/17 11:05:15;;;;;;;32.25;14.10;;;9.50;89.40;;;;;;5050745;28;20032;-78
2021/11/17 11:07:55;;;;;;;38.97;15.68;;;9.60;89.50;;;;;;5051709;28;20025;-78
2021/11/17 11:10:30;;;;;;;38.97;15.63;;;9.60;89.50;;;;;;5050436;28;20029;-78
2021/11/17 11:12:58;;;;;;;37.33;16.20;;;9.70;89.50;;;;;;5052225;28;20017;-77
2021/11/17 11:15:31;;;;;;;44.20;17.27;;;9.80;89.50;;;;;;5052317;28;20036;-78
2021/11/17 11:18:09;;;;;;;39.22;15.13;;;9.80;89.60;;;;;;5047006;28;20281;-78
2021/11/17 11:20:43;;;;;;;27.35;12.90;;;9.80;89.50;;;;;;5064308;28;20024;-79
2021/11/17 11:23:23;;;;;;;39.10;16.23;;;9.80;89.50;;;;;;5054573;28;20064;-78
2021/11/17 11:26:23;;;;;;;32.40;13.73;;;9.90;89.50;;;;;;5049936;28;20024;-78
2021/11/17 11:28:51;;;;;;;39.95;16.30;;;10.00;89.50;;;;;;5060864;28;20032;-77
2021/11/17 11:31:25;;;;;;;42.38;16.27;;;10.00;89.40;;;;;;5054877;28;20020;-78
2021/11/17 11:34:13;;;;;;;39.65;16.60;;;10.10;89.50;;;;;;5047016;28;20102;-78
2021/11/17 11:36:46;;;;;;;43.90;17.35;;;10.20;89.50;;;;;;5049180;28;20491;-78
2021/11/17 11:39:11;;;;;;;36.80;16.05;;;10.20;89.40;;;;;;5048879;28;20072;-78
2021/11/17 11:41:45;;;;;;;30.40;12.25;;;10.20;89.40;;;;;;5054305;28;20036;-79
2021/11/17 11:44:17;;;;;;;40.33;16.13;;;10.30;89.40;;;;;;5053987;28;20041;-79
2021/11/17 11:46:50;;;;;;;34.53;14.60;;;10.30;89.30;;;;;;5055137;28;20080;-79
2021/11/17 11:49:35;;;;;;;41.42;16.85;;;10.40;89.40;;;;;;5044905;28;20033;-79
2021/11/17 11:52:06;;;;;;;45.42;19.00;;;10.40;89.30;;;;;;5050427;28;20033;-79
2021/11/17 11:54:55;;;;;;;36.63;16.55;;;10.40;89.30;;;;;;5045319;28;20021;-79
2021/11/17 11:57:36;;;;;;;37.88;16.75;;;10.50;89.40;;;;;;5059673;28;20041;-78
2021/11/17 12:00:13;;;;;;;44.63;18.85;;;10.50;89.30;;;;;;5040066;28;20037;-79
2021/11/17 12:02:54;;;;;;;42.47;18.25;;;10.60;89.40;;;;;;5043221;28;20033;-79
2021/11/17 12:05:40;;;;;;;39.50;17.50;;;10.60;89.40;;;;;;5041943;28;20533;-79
2021/11/17 12:08:23;;;;;;;42.58;18.35;;;10.70;89.40;;;;;;5046032;28;20107;-81
2021/11/17 12:11:01;;;;;;;37.30;16.85;;;10.70;89.40;;;;;;5049730;28;20025;-76
2021/11/17 12:13:30;;;;;;;37.42;15.38;;;10.70;89.30;;;;;;5049721;28;20021;-76
2021/11/17 12:15:58;;;;;;;41.55;17.45;;;10.80;89.20;;;;;;5048094;28;20043;-76
2021/11/17 12:18:24;;;;;;;40.65;19.33;;;10.80;89.20;;;;;;5047024;28;20112;-76
2021/11/17 12:21:15;;;;;;;36.38;17.60;;;10.80;89.20;;;;;;5046904;28;20167;-76
2021/11/17 12:23:43;;;;;;;29.35;13.80;;;10.90;89.40;;;;;;5049071;28;20055;-76
2021/11/17 12:26:22;;;;;;;33.63;15.07;;;10.90;89.30;;;;;;5052014;28;20766;-76
2021/11/17 12:29:01;;;;;;;31.23;15.45;;;10.90;89.30;;;;;;5041175;28;20032;-76
2021/11/17 12:32:00;;;;;;;40.30;18.48;;;11.00;89.30;;;;;;5049400;28;20090;-76
2021/11/17 12:34:34;;;;;;;35.58;15.82;;;11.00;89.30;;;;;;5054097;28;20028;-76
2021/11/17 12:37:35;;;;;;;33.15;16.13;;;11.00;89.40;;;;;;5046246;28;20071;-76
2021/11/17 12:40:08;;;;;;;40.97;17.13;;;11.00;89.40;;;;;;5049814;28;21114;-77
2021/11/17 12:42:36;;;;;;;;;;;11.10;89.30;;;;;;5050149;28;20033;-77
2021/11/17 12:45:32;;;;;;;32.92;15.73;;;11.10;89.20;;;;;;5049338;28;19915;-77
2021/11/17 12:48:02;;;;;;;21.30;10.95;;;11.10;89.40;;;;;;5034290;28;20124;-77
2021/11/17 12:50:44;;;;;;;25.67;13.23;;;11.10;89.30;;;;;;5047466;28;20109;-77
2021/11/17 12:53:24;;;;;;;26.08;12.98;;;11.10;89.30;;;;;;5049336;28;20021;-77
2021/11/17 12:55:59;;;;;;;28.77;13.55;;;11.10;89.30;;;;;;5038811;28;20044;-76
2021/11/17 12:58:34;;;;;;;23.52;11.85;;;11.20;89.30;;;;;;5030920;28;20025;-77
2021/11/17 13:01:24;;;;;;;25.05;11.75;;;11.20;89.30;;;;;;5050642;28;20025;-77
2021/11/17 13:03:49;;;;;;;26.20;12.88;;;11.20;89.20;;;;;;5051541;28;20373;-77
2021/11/17 13:06:28;;;;;;;25.23;12.70;;;11.30;89.10;;;;;;5053851;28;20020;-77
2021/11/17 13:09:16;;;;;;;27.30;12.77;;;11.30;89.20;;;;;;5052876;28;20044;-77
2021/11/17 13:11:59;;;;;;;22.42;11.25;;;11.30;89.20;;;;;;5054195;28;20040;-77
2021/11/17 13:14:51;;;;;;;23.48;11.82;;;11.30;89.10;;;;;;5053311;28;20059;-77
2021/11/17 13:17:20;;;;;;;28.10;13.43;;;11.40;89.10;;;;;;5052479;28;20017;-76
2021/11/17 13:19:52;;;;;;;19.83;10.23;;;11.50;89.00;;;;;;5052262;28;20032;-76
2021/11/17 13:22:28;;;;;;;20.65;10.98;;;11.50;88.90;;;;;;5052451;28;20062;-76
2021/11/17 13:25:26;;;;;;;25.50;13.15;;;11.60;88.80;;;;;;5051860;28;20040;-76
2021/11/17 13:27:57;;;;;;;27.77;13.75;;;11.70;88.80;;;;;;5048808;28;20417;-76
2021/11/17 13:30:46;;;;;;;25.35;12.63;;;11.70;88.70;;;;;;5054037;28;20083;-77
2021/11/17 13:33:22;;;;;;;18.73;9.93;;;11.80;88.70;;;;;;5053194;28;20053;-79
2021/11/17 13:36:00;;;;;;;23.27;10.18;;;11.80;88.60;;;;;;5053031;28;20025;-75
2021/11/17 13:38:25;;;;;;;22.25;10.20;;;11.90;88.60;;;;;;5052682;28;20025;-76
2021/11/17 13:40:57;;;;;;;19.55;9.70;;;12.00;88.50;;;;;;5051482;28;20025;-76
2021/11/17 13:43:24;;;;;;;21.33;9.38;;;12.10;88.50;;;;;;5051799;28;20132;-76
2021/11/17 13:45:52;;;;;;;26.55;13.60;;;12.10;88.30;;;;;;5053538;28;20024;-77
2021/11/17 13:48:22;;;;;;;21.25;10.88;;;12.10;88.30;;;;;;5053737;28;20032;-76
2021/11/17 13:50:49;;;;;;;18.40;10.13;;;12.10;88.20;;;;;;5053531;28;20079;-76
2021/11/17 13:53:17;;;;;;;16.13;8.30;;;12.20;88.20;;;;;;5052098;28;20165;-76
2021/11/17 13:56:03;;;;;;;17.48;7.97;;;12.20;88.10;;;;;;5051795;28;20093;-76
2021/11/17 13:58:31;;;;;;;15.98;8.00;;;12.20;87.90;;;;;;5053706;28;20033;-76
2021/11/17 14:00:57;;;;;;;21.63;7.68;;;12.20;87.80;;;;;;5053655;28;20506;-76
2021/11/17 14:03:22;;;;;;;16.13;7.20;;;12.20;87.80;;;;;;5053220;28;20064;-76
2021/11/17 14:05:49;;;;;;;14.10;7.43;;;12.30;87.90;;;;;;5053209;28;20025;-75
2021/11/17 14:08:16;;;;;;;15.05;7.47;;;12.30;87.90;;;;;;5053338;28;20025;-76
2021/11/17 14:10:42;;;;;;;15.27;6.45;;;12.30;87.80;;;;;;5052431;28;20060;-76
2021/11/17 14:13:07;;;;;;;12.93;6.10;;;12.40;87.70;;;;;;5051278;28;20036;-76
2021/11/17 14:15:34;;;;;;;10.93;5.45;;;12.30;87.50;;;;;;5053060;28;20028;-77
2021/11/17 14:17:59;;;;;;;11.38;4.63;;;12.30;87.50;;;;;;5051866;28;20032;-77
2021/11/17 14:20:25;;;;;;;14.07;5.22;;;12.30;87.50;;;;;;5053557;28;20112;-77
2021/11/17 14:22:51;;;;;;;10.90;4.20;;;12.30;87.40;;;;;;5052710;28;20040;-76
2021/11/17 14:25:20;;;;;;;11.70;3.97;;;12.30;87.40;;;;;;5052866;28;20044;-76
2021/11/17 14:27:50;;;;;;;10.43;3.03;;;12.20;87.40;;;;;;5052626;28;20112;-75
2021/11/17 14:30:28;;;;;;;7.88;3.28;;;12.20;87.40;;;;;;5051763;28;20029;-74
2021/11/17 14:32:55;;;;;;;9.80;3.47;;;12.20;87.30;;;;;;5052205;28;20032;-75
2021/11/17 14:35:25;;;;;;;8.15;3.33;;;12.20;87.20;;;;;;5052967;28;20021;-75
2021/11/17 14:37:52;;;;;;;8.07;2.90;;;12.20;87.20;;;;;;5051429;28;20025;-75
2021/11/17 14:40:19;;;;;;;9.50;3.15;;;12.10;87.10;;;;;;5051075;28;20025;-76
2021/11/17 14:42:46;;;;;;;12.65;3.03;;;12.10;87.00;;;;;;5054845;28;20025;-75
2021/11/17 14:45:16;;;;;;;9.82;3.00;;;12.10;87.00;;;;;;5051081;28;20024;-77
2021/11/17 14:47:43;;;;;;;7.93;2.47;;;12.10;86.90;;;;;;5049669;28;20079;-75
2021/11/17 14:50:09;;;;;;;8.60;2.40;;;12.10;86.90;;;;;;5043219;28;20445;-76
2021/11/17 14:52:36;;;;;;;10.88;2.00;;;12.00;86.80;;;;;;5046021;28;20056;-76
2021/11/17 14:55:03;;;;;;;6.60;1.95;;;12.00;86.70;;;;;;5043146;28;20369;-76
2021/11/17 14:57:29;;;;;;;11.07;2.17;;;11.90;86.60;;;;;;5047019;28;20028;-75
2021/11/17 14:59:55;;;;;;;8.85;2.15;;;11.90;86.60;;;;;;5048017;28;20024;-76
2021/11/17 15:02:20;;;;;;;10.13;2.30;;;11.80;86.50;;;;;;5050917;28;20419;-76
2021/11/17 15:04:46;;;;;;;9.18;1.73;;;11.80;86.30;;;;;;5044105;28;20026;-77
2021/11/17 15:07:14;;;;;;;7.78;2.08;;;11.70;86.30;;;;;;5043430;28;20018;-77
2021/11/17 15:09:40;;;;;;;6.85;1.90;;;11.70;86.10;;;;;;5049175;28;20070;-76
2021/11/17 15:12:16;;;;;;;5.93;1.98;;;11.60;86.10;;;;;;5043781;28;20100;-77
2021/11/17 15:14:43;;;;;;;7.53;2.00;;;11.60;86.00;;;;;;5046652;28;20384;-75
2021/11/17 15:17:09;;;;;;;9.20;2.00;;;11.50;86.00;;;;;;5049051;28;20112;-76
2021/11/17 15:19:35;;;;;;;6.82;1.63;;;11.50;85.90;;;;;;5049199;28;20495;-75
2021/11/17 15:22:01;;;;;;;6.68;1.77;;;11.50;85.90;;;;;;5039306;28;20082;-75
2021/11/17 15:24:29;;;;;;;7.10;1.55;;;11.40;85.80;;;;;;5048362;28;20495;-76
2021/11/17 15:27:00;;;;;;;9.68;1.65;;;11.40;85.80;;;;;;5048788;28;20025;-75
2021/11/17 15:29:26;;;;;;;8.63;1.58;;;11.40;85.90;;;;;;5047786;28;20032;-76
2021/11/17 15:31:52;;;;;;;8.68;1.60;;;11.40;85.90;;;;;;5050643;28;20495;-76
2021/11/17 15:34:18;;;;;;;7.05;1.83;;;11.30;85.80;;;;;;5049738;28;20467;-75
2021/11/17 15:36:44;;;;;;;4.65;1.30;;;11.30;85.90;;;;;;5049288;28;20028;-76
2021/11/17 15:39:09;;;;;;;6.50;1.55;;;11.30;85.80;;;;;;5050102;28;20063;-76
2021/11/17 15:41:40;;;;;;;7.90;1.83;;;11.30;85.80;;;;;;5048735;28;20033;-77
2021/11/17 15:44:07;;;;;;;11.05;1.70;;;11.20;85.70;;;;;;5048609;28;20099;-77
2021/11/17 15:46:35;;;;;;;7.63;1.70;;;11.20;85.70;;;;;;5050040;28;20035;-77
2021/11/17 15:49:02;;;;;;;6.07;1.70;;;11.10;85.70;;;;;;5057907;28;20025;-78